Time;durP1;ratioP1;P1;durP2;ratioP2;P2;SDS_P1;SDS_P2;PMS_P1;PMS_P2;Temp;Humidity;BMP_temperature;BMP_pressure;BME280_temperature;BME280_humidity;BME280_pressure;Samples;Min_cycle;Max_cycle;Signal;HPM_P1;HPM_P2
2024/01/15 00:00:19;;;;;;;;;;;;;;;17.64;59.63;100329.09;7393221;19;1704;-34
2024/01/15 00:02:48;;;;;;;;;;;;;;;17.54;60.07;100320.19;7392785;19;1479;-33
2024/01/15 00:05:16;;;;;;;;;;;;;;;17.44;60.25;100309.47;7392487;19;1505;-33
2024/01/15 00:07:44;;;;;;;;;;;;;;;17.41;60.25;100307.09;7392972;19;1478;-34
2024/01/15 00:10:13;;;;;;;;;;;;;;;17.29;60.49;100314.38;7392078;19;1491;-33
2024/01/15 00:12:44;;;;;;;;;;;;;;;17.67;59.64;100315.44;7392751;19;1938;-34
2024/01/15 00:15:12;;;;;;;;;;;;;;;18.07;58.44;100315.38;7391335;19;1838;-34
2024/01/15 00:17:41;;;;;;;;;;;;;;;18.37;57.88;100323.41;7393485;19;1503;-33
2024/01/15 00:20:10;;;;;;;;;;;;;;;18.42;57.47;100324.69;7393111;19;1452;-34
2024/01/15 00:22:38;;;;;;;;;;;;;;;18.44;57.43;100321.84;7392670;19;1495;-34
2024/01/15 00:25:07;;;;;;;;;;;;;;;18.41;57.45;100322.97;7392866;19;1479;-34
2024/01/15 00:27:35;;;;;;;;;;;;;;;18.44;57.44;100332.53;7392096;19;1209;-34
2024/01/15 00:30:07;;;;;;;;;;;;;;;18.47;57.53;100329.59;7391450;19;1456;-33
2024/01/15 00:32:35;;;;;;;;;;;;;;;18.45;57.41;100339.59;7390880;19;1585;-33
2024/01/15 00:35:03;;;;;;;;;;;;;;;18.40;57.49;100315.06;7390460;19;2247;-34
2024/01/15 00:37:32;;;;;;;;;;;;;;;18.41;57.60;100312.25;7375295;19;1445;-34
2024/01/15 00:40:00;;;;;;;;;;;;;;;18.46;57.30;100311.81;7393478;19;1491;-33
2024/01/15 00:42:29;;;;;;;;;;;;;;;18.45;57.30;100307.47;7390422;19;1588;-33
2024/01/15 00:44:57;;;;;;;;;;;;;;;18.47;57.33;100309.00;7390461;19;1467;-34
2024/01/15 00:47:28;;;;;;;;;;;;;;;18.47;57.15;100310.84;7390425;19;1490;-33
2024/01/15 00:49:56;;;;;;;;;;;;;;;18.42;57.37;100308.63;7389635;19;1403;-33
2024/01/15 00:52:25;;;;;;;;;;;;;;;18.43;57.37;100309.44;7391434;19;1478;-33
2024/01/15 00:54:53;;;;;;;;;;;;;;;18.47;57.38;100302.81;7392120;19;1857;-33
2024/01/15 00:57:21;;;;;;;;;;;;;;;18.45;57.41;100302.13;7391216;19;1592;-33
2024/01/15 00:59:50;;;;;;;;;;;;;;;18.40;57.30;100297.22;7390379;19;1360;-34
2024/01/15 01:02:18;;;;;;;;;;;;;;;18.45;57.45;100304.78;7390342;19;1454;-33
2024/01/15 01:04:49;;;;;;;;;;;;;;;18.48;57.20;100317.88;7390067;19;1462;-34
2024/01/15 01:07:17;;;;;;;;;;;;;;;18.49;57.12;100295.50;7390162;19;1569;-34
2024/01/15 01:09:46;;;;;;;;;;;;;;;18.44;57.49;100284.34;7392298;19;1228;-34
2024/01/15 01:12:14;;;;;;;;;;;;;;;18.47;57.12;100287.59;7389051;19;1816;-34
2024/01/15 01:14:42;;;;;;;;;;;;;;;18.44;57.37;100277.19;7390889;19;1966;-34
2024/01/15 01:17:11;;;;;;;;;;;;;;;18.54;57.13;100285.19;7390623;19;1461;-34
2024/01/15 01:19:39;;;;;;;;;;;;;;;18.52;57.22;100289.81;7390740;19;1498;-34
2024/01/15 01:22:10;;;;;;;;;;;;;;;18.48;57.27;100283.06;7390146;19;1447;-33
2024/01/15 01:24:38;;;;;;;;;;;;;;;18.55;56.90;100281.53;7390846;19;1455;-34
2024/01/15 01:27:07;;;;;;;;;;;;;;;18.48;57.11;100281.25;7388808;19;1478;-33
2024/01/15 01:29:35;;;;;;;;;;;;;;;18.49;57.16;100269.56;7389767;19;1245;-34
2024/01/15 01:32:03;;;;;;;;;;;;;;;18.52;56.96;100268.41;7390398;19;1565;-34
2024/01/15 01:34:32;;;;;;;;;;;;;;;18.44;57.14;100258.44;7390188;19;1229;-34
2024/01/15 01:37:00;;;;;;;;;;;;;;;18.45;57.23;100276.19;7372965;19;1850;-34
2024/01/15 01:39:31;;;;;;;;;;;;;;;18.42;57.17;100259.56;7390257;19;1300;-33
2024/01/15 01:41:59;;;;;;;;;;;;;;;18.46;57.19;100269.00;7387728;19;1926;-34
2024/01/15 01:44:27;;;;;;;;;;;;;;;18.48;57.17;100269.69;7392184;19;1269;-33
2024/01/15 01:46:56;;;;;;;;;;;;;;;18.44;57.16;100254.91;7397339;19;1506;-34
2024/01/15 01:49:26;;;;;;;;;;;;;;;18.48;57.16;100275.03;7396168;19;1407;-34
2024/01/15 01:51:54;;;;;;;;;;;;;;;18.41;57.12;100264.06;7398242;19;1549;-34
2024/01/15 01:54:23;;;;;;;;;;;;;;;18.45;57.28;100267.31;7398630;19;1074;-38
2024/01/15 01:56:54;;;;;;;;;;;;;;;18.42;57.18;100252.41;7395309;19;1865;-34
2024/01/15 01:59:23;;;;;;;;;;;;;;;18.43;57.24;100253.22;7397488;19;1864;-33
2024/01/15 02:01:52;;;;;;;;;;;;;;;18.48;56.98;100251.81;7397163;19;1812;-33
2024/01/15 02:04:20;;;;;;;;;;;;;;;18.42;57.08;100254.19;7396377;19;1483;-33
2024/01/15 02:06:49;;;;;;;;;;;;;;;18.48;57.03;100249.13;7397218;19;1667;-34
2024/01/15 02:09:17;;;;;;;;;;;;;;;18.49;56.95;100250.81;7396190;19;1820;-34
2024/01/15 02:11:46;;;;;;;;;;;;;;;18.44;57.10;100237.03;7396633;19;1351;-34
2024/01/15 02:14:17;;;;;;;;;;;;;;;18.44;57.03;100253.09;7395736;19;1462;-33
2024/01/15 02:16:46;;;;;;;;;;;;;;;18.50;57.11;100248.97;7393676;19;1842;-34
2024/01/15 02:19:17;;;;;;;;;;;;;;;18.49;57.06;100220.53;7396387;19;1304;-34
2024/01/15 02:21:45;;;;;;;;;;;;;;;18.53;56.85;100245.19;7396799;19;1583;-34
2024/01/15 02:24:16;;;;;;;;;;;;;;;18.52;56.79;100241.63;7396814;19;1517;-34
2024/01/15 02:26:45;;;;;;;;;;;;;;;18.47;56.91;100239.41;7395596;19;1559;-33
2024/01/15 02:29:14;;;;;;;;;;;;;;;18.47;56.95;100226.00;7394271;19;1926;-35
2024/01/15 02:31:42;;;;;;;;;;;;;;;18.48;56.97;100214.34;7396104;19;1157;-33
2024/01/15 02:34:10;;;;;;;;;;;;;;;18.42;57.15;100225.63;7395805;19;1403;-33
2024/01/15 02:36:39;;;;;;;;;;;;;;;18.43;57.07;100197.84;7391470;19;1841;-33
2024/01/15 02:39:07;;;;;;;;;;;;;;;18.44;56.93;100193.31;7387950;19;1580;-34
2024/01/15 02:41:38;;;;;;;;;;;;;;;18.39;56.98;100203.66;7396235;19;1514;-34
2024/01/15 02:44:06;;;;;;;;;;;;;;;18.40;56.97;100195.47;7395927;19;1023;-33
2024/01/15 02:46:35;;;;;;;;;;;;;;;18.45;56.94;100201.22;7395111;19;1832;-33
2024/01/15 02:49:03;;;;;;;;;;;;;;;18.43;56.89;100188.97;7395610;19;1507;-33
2024/01/15 02:51:31;;;;;;;;;;;;;;;18.41;57.11;100207.03;7395262;19;1730;-34
2024/01/15 02:54:00;;;;;;;;;;;;;;;18.39;57.00;100195.63;7395679;19;1834;-33
2024/01/15 02:56:28;;;;;;;;;;;;;;;18.40;57.17;100186.56;7393194;19;1853;-33
2024/01/15 02:58:59;;;;;;;;;;;;;;;18.39;56.98;100190.25;7394819;19;1737;-33
2024/01/15 03:01:28;;;;;;;;;;;;;;;18.37;57.08;100198.44;7393078;19;1729;-33
2024/01/15 03:03:57;;;;;;;;;;;;;;;18.37;57.00;100186.88;7395387;19;1501;-34
2024/01/15 03:06:25;;;;;;;;;;;;;;;18.42;56.97;100189.94;7394930;19;1428;-34
2024/01/15 03:08:53;;;;;;;;;;;;;;;18.39;57.11;100185.75;7394902;19;1249;-33
2024/01/15 03:11:22;;;;;;;;;;;;;;;18.14;57.67;100203.25;7395141;19;1535;-35
2024/01/15 03:13:50;;;;;;;;;;;;;;;17.81;58.24;100197.38;7395183;19;1273;-33
2024/01/15 03:16:22;;;;;;;;;;;;;;;17.62;58.81;100178.66;7394006;19;1841;-34
2024/01/15 03:18:50;;;;;;;;;;;;;;;17.42;59.10;100180.47;7394730;19;1307;-34
2024/01/15 03:21:18;;;;;;;;;;;;;;;17.39;59.30;100186.94;7392914;19;1661;-33
2024/01/15 03:23:46;;;;;;;;;;;;;;;17.25;59.78;100171.31;7393352;19;1379;-34
2024/01/15 03:26:15;;;;;;;;;;;;;;;17.67;58.61;100185.25;7392930;19;1404;-34
2024/01/15 03:28:43;;;;;;;;;;;;;;;18.12;57.54;100188.34;7394728;19;1387;-33
2024/01/15 03:31:12;;;;;;;;;;;;;;;18.31;57.10;100161.53;7394156;19;1982;-34
2024/01/15 03:33:43;;;;;;;;;;;;;;;18.43;56.86;100163.03;7394008;19;1484;-34
2024/01/15 03:36:12;;;;;;;;;;;;;;;18.37;56.76;100187.72;7394401;19;1842;-34
2024/01/15 03:38:42;;;;;;;;;;;;;;;18.34;57.06;100171.09;7378458;19;1503;-34
2024/01/15 03:41:10;;;;;;;;;;;;;;;18.27;57.19;100171.69;7394650;19;1459;-33
2024/01/15 03:43:39;;;;;;;;;;;;;;;18.26;57.09;100174.50;7393138;19;1336;-34
2024/01/15 03:46:07;;;;;;;;;;;;;;;18.31;56.83;100155.34;7394703;19;1780;-33
2024/01/15 03:48:35;;;;;;;;;;;;;;;18.26;57.14;100170.03;7393076;19;1498;-34
2024/01/15 03:51:07;;;;;;;;;;;;;;;18.32;56.98;100170.41;7393005;19;1964;-33
2024/01/15 03:53:35;;;;;;;;;;;;;;;18.34;56.86;100174.63;7393011;19;1356;-34
2024/01/15 03:56:03;;;;;;;;;;;;;;;18.31;57.05;100155.34;7393033;19;1849;-33
2024/01/15 03:58:31;;;;;;;;;;;;;;;18.32;56.88;100152.50;7393414;19;1572;-34
2024/01/15 04:01:00;;;;;;;;;;;;;;;18.34;56.70;100144.34;7391379;19;1224;-34
2024/01/15 04:03:28;;;;;;;;;;;;;;;18.45;56.48;100147.69;7393181;19;1923;-34
2024/01/15 04:05:57;;;;;;;;;;;;;;;18.62;56.05;100140.72;7393082;19;1507;-33
2024/01/15 04:08:27;;;;;;;;;;;;;;;18.76;55.63;100154.59;7391668;19;1387;-34
2024/01/15 04:10:56;;;;;;;;;;;;;;;18.72;55.80;100129.09;7393570;19;1165;-33
2024/01/15 04:13:24;;;;;;;;;;;;;;;18.71;55.94;100149.69;7393480;19;1573;-33
2024/01/15 04:15:52;;;;;;;;;;;;;;;18.80;55.82;100161.34;7392259;19;1861;-34
2024/01/15 04:18:21;;;;;;;;;;;;;;;18.80;55.77;100162.22;7391566;19;1515;-33
2024/01/15 04:20:49;;;;;;;;;;;;;;;18.81;55.66;100155.03;7391918;19;1820;-34
2024/01/15 04:23:17;;;;;;;;;;;;;;;18.83;55.67;100139.66;7391846;19;1753;-33
2024/01/15 04:25:48;;;;;;;;;;;;;;;18.87;55.61;100141.03;7390902;19;1450;-33
2024/01/15 04:28:17;;;;;;;;;;;;;;;18.87;55.51;100152.56;7392233;19;1505;-34
2024/01/15 04:30:45;;;;;;;;;;;;;;;18.87;55.48;100159.78;7390998;19;1933;-33
2024/01/15 04:33:13;;;;;;;;;;;;;;;18.79;55.83;100148.94;7392074;19;1399;-33
2024/01/15 04:35:42;;;;;;;;;;;;;;;18.69;56.06;100165.88;7390894;19;1755;-33
2024/01/15 04:38:10;;;;;;;;;;;;;;;18.59;56.18;100162.41;7375142;19;1845;-34
2024/01/15 04:40:38;;;;;;;;;;;;;;;18.69;56.03;100165.88;7392229;19;1057;-33
2024/01/15 04:43:09;;;;;;;;;;;;;;;18.65;56.02;100164.50;7389906;19;1817;-33
2024/01/15 04:45:37;;;;;;;;;;;;;;;18.67;56.13;100151.81;7391121;19;1746;-33
2024/01/15 04:48:06;;;;;;;;;;;;;;;18.84;55.56;100168.09;7390707;19;1368;-34
2024/01/15 04:50:34;;;;;;;;;;;;;;;18.97;55.46;100157.88;7390792;19;1561;-33
2024/01/15 04:53:03;;;;;;;;;;;;;;;19.12;55.09;100171.63;7390756;19;1313;-33
2024/01/15 04:55:31;;;;;;;;;;;;;;;19.28;54.67;100160.25;7390949;19;1867;-33
2024/01/15 04:57:59;;;;;;;;;;;;;;;19.27;54.57;100169.25;7387920;19;1872;-34
2024/01/15 05:00:30;;;;;;;;;;;;;;;19.01;55.32;100131.63;7391653;19;1471;-34
2024/01/15 05:02:58;;;;;;;;;;;;;;;18.82;55.99;100159.38;7389963;19;1224;-33
2024/01/15 05:05:27;;;;;;;;;;;;;;;18.69;55.92;100138.28;7388283;19;1521;-34
2024/01/15 05:07:55;;;;;;;;;;;;;;;18.72;56.08;100169.25;7388794;19;1533;-34
2024/01/15 05:10:24;;;;;;;;;;;;;;;18.36;55.95;100083.47;7373782;19;1325;-34
2024/01/15 05:12:52;;;;;;;;;;;;;;;18.85;55.69;100149.22;7389787;19;1131;-34
2024/01/15 05:15:20;;;;;;;;;;;;;;;18.97;55.36;100140.97;7390186;19;1503;-33
2024/01/15 05:17:51;;;;;;;;;;;;;;;19.01;55.35;100163.78;7384140;19;1884;-34
2024/01/15 05:20:19;;;;;;;;;;;;;;;18.93;55.48;100172.56;7392249;19;1246;-33
2024/01/15 05:22:48;;;;;;;;;;;;;;;18.85;55.53;100148.38;7397361;19;1516;-33
2024/01/15 05:25:16;;;;;;;;;;;;;;;18.83;55.81;100174.47;7397100;19;1195;-41
2024/01/15 05:27:44;;;;;;;;;;;;;;;18.84;55.77;100144.84;7397891;19;1164;-33
2024/01/15 05:30:13;;;;;;;;;;;;;;;18.73;56.08;100152.22;7395702;19;1427;-33
2024/01/15 05:32:42;;;;;;;;;;;;;;;18.73;55.92;100149.53;7396918;19;1686;-33
2024/01/15 05:35:13;;;;;;;;;;;;;;;18.95;55.35;100127.72;7396012;19;1490;-34
2024/01/15 05:37:42;;;;;;;;;;;;;;;19.01;54.93;100135.16;7379858;19;1841;-38
2024/01/15 05:40:11;;;;;;;;;;;;;;;18.87;54.96;100127.63;7395329;19;1380;-34
2024/01/15 05:42:39;;;;;;;;;;;;;;;18.80;54.69;100124.72;7393250;19;1648;-33
2024/01/15 05:45:08;;;;;;;;;;;;;;;18.65;55.35;100135.03;7390327;19;1396;-34
2024/01/15 05:47:37;;;;;;;;;;;;;;;18.66;55.41;100122.50;7393342;19;1770;-33
2024/01/15 05:50:06;;;;;;;;;;;;;;;18.77;54.75;100119.63;7390671;19;1309;-33
2024/01/15 05:52:37;;;;;;;;;;;;;;;18.69;55.39;100111.50;7390511;19;1404;-33
2024/01/15 05:55:06;;;;;;;;;;;;;;;18.68;54.72;100121.38;7391997;19;1395;-33
2024/01/15 05:57:34;;;;;;;;;;;;;;;18.75;54.39;100129.63;7392127;19;1841;-33
2024/01/15 06:00:02;;;;;;;;;;;;;;;18.79;54.23;100114.13;7389865;19;1253;-34
2024/01/15 06:02:31;;;;;;;;;;;;;;;18.83;53.98;100111.00;7389997;19;1718;-33
2024/01/15 06:04:59;;;;;;;;;;;;;;;18.90;54.05;100119.31;7391212;19;1070;-33
2024/01/15 06:07:27;;;;;;;;;;;;;;;18.90;54.08;100113.09;7389529;19;1519;-33
2024/01/15 06:09:58;;;;;;;;;;;;;;;18.95;54.08;100126.88;7385479;19;1584;-34
2024/01/15 06:12:27;;;;;;;;;;;;;;;18.26;53.92;100013.91;7387625;19;1585;-34
2024/01/15 06:14:56;;;;;;;;;;;;;;;18.88;53.76;100115.94;7390100;19;1254;-33
2024/01/15 06:17:24;;;;;;;;;;;;;;;18.97;53.51;100106.97;7388392;19;1846;-33
2024/01/15 06:19:52;;;;;;;;;;;;;;;18.98;53.32;100099.78;7389326;19;1041;-33
2024/01/15 06:22:21;;;;;;;;;;;;;;;19.02;53.28;100111.88;7388888;19;1597;-34
2024/01/15 06:24:49;;;;;;;;;;;;;;;18.65;53.57;100096.72;7388120;19;1793;-36
2024/01/15 06:27:20;;;;;;;;;;;;;;;18.26;54.75;100108.47;7390287;19;1186;-35
2024/01/15 06:29:49;;;;;;;;;;;;;;;18.04;55.30;100106.13;7390241;19;1237;-35
2024/01/15 06:32:18;;;;;;;;;;;;;;;18.05;55.56;100122.03;7391911;19;1213;-36
2024/01/15 06:34:46;;;;;;;;;;;;;;;18.53;54.51;100111.31;7391151;19;1477;-36
2024/01/15 06:37:14;;;;;;;;;;;;;;;19.05;53.49;100141.06;7391525;19;1829;-36
2024/01/15 06:39:42;;;;;;;;;;;;;;;19.00;53.81;100114.72;7378510;19;1165;-35
2024/01/15 06:42:11;;;;;;;;;;;;;;;19.15;53.56;100128.44;7388629;19;1230;-33
2024/01/15 06:44:42;;;;;;;;;;;;;;;18.95;51.71;100122.34;7231237;19;3051480;-33
2024/01/15 06:47:10;;;;;;;;;;;;;;;18.98;51.96;100113.16;7393887;19;1411;-33
2024/01/15 06:49:39;;;;;;;;;;;;;;;18.96;51.94;100107.13;7394635;19;1572;-33
2024/01/15 06:52:07;;;;;;;;;;;;;;;18.95;52.51;100124.22;7394852;19;1550;-33
2024/01/15 06:54:36;;;;;;;;;;;;;;;19.02;52.25;100118.09;7393460;19;1488;-33
2024/01/15 06:57:06;;;;;;;;;;;;;;;18.98;52.73;100122.06;7392571;19;1845;-33
2024/01/15 06:59:35;;;;;;;;;;;;;;;18.98;52.74;100108.69;7393438;19;1289;-34
2024/01/15 07:02:06;;;;;;;;;;;;;;;19.01;52.73;100099.47;7394227;19;1497;-33
2024/01/15 07:04:34;;;;;;;;;;;;;;;19.03;52.87;100135.00;7391398;19;1213;-33
2024/01/15 07:07:02;;;;;;;;;;;;;;;19.16;52.76;100113.19;7394096;19;1621;-33
2024/01/15 07:09:31;;;;;;;;;;;;;;;19.36;52.61;100106.69;7393705;19;1261;-34
2024/01/15 07:11:59;;;;;;;;;;;;;;;19.41;52.39;100112.41;7393255;19;1478;-33
2024/01/15 07:14:28;;;;;;;;;;;;;;;19.42;52.54;100116.81;7393412;19;1405;-33
2024/01/15 07:16:56;;;;;;;;;;;;;;;19.25;52.88;100091.66;7393200;19;1868;-32
2024/01/15 07:19:27;;;;;;;;;;;;;;;19.17;53.03;100114.88;7394869;19;1218;-32
2024/01/15 07:21:56;;;;;;;;;;;;;;;19.13;53.11;100097.44;7394156;19;1830;-33
2024/01/15 07:24:24;;;;;;;;;;;;;;;19.09;53.24;100102.25;7393367;19;1313;-33
2024/01/15 07:26:52;;;;;;;;;;;;;;;19.20;53.69;100111.88;7391177;19;1525;-33
2024/01/15 07:29:20;;;;;;;;;;;;;;;19.20;54.01;100094.00;7394006;19;1609;-34
2024/01/15 07:31:50;;;;;;;;;;;;;;;19.22;54.26;100142.09;7394426;19;1294;-33
2024/01/15 07:34:19;;;;;;;;;;;;;;;19.30;54.01;100099.28;7394045;19;1213;-32
2024/01/15 07:36:50;;;;;;;;;;;;;;;19.24;54.04;100099.88;7393411;19;1225;-33
2024/01/15 07:39:19;;;;;;;;;;;;;;;19.16;53.99;100102.47;7355778;19;1871;-33
2024/01/15 07:41:47;;;;;;;;;;;;;;;19.22;53.77;100101.88;7387791;19;1594;-33
2024/01/15 07:44:16;;;;;;;;;;;;;;;19.19;53.88;100097.66;7390229;19;1741;-33
2024/01/15 07:46:46;;;;;;;;;;;;;;;19.29;53.44;100092.22;7391206;19;1355;-33
2024/01/15 07:49:15;;;;;;;;;;;;;;;19.23;53.55;100092.81;7391793;19;1490;-33
2024/01/15 07:51:43;;;;;;;;;;;;;;;18.66;54.83;100080.50;7393297;19;1063;-33
2024/01/15 07:54:14;;;;;;;;;;;;;;;18.31;55.58;100083.91;7392906;19;1034;-33
2024/01/15 07:56:57;;;;;;;;;;;;;;;18.07;56.33;100079.09;7392041;19;1906;-33
2024/01/15 07:59:26;;;;;;;;;;;;;;;17.94;56.33;100095.44;7390945;19;1821;-33
2024/01/15 08:01:54;;;;;;;;;;;;;;;18.35;55.52;100082.63;7390066;19;1840;-33
2024/01/15 08:04:22;;;;;;;;;;;;;;;18.76;54.61;100083.13;7389266;19;1535;-34
2024/01/15 08:06:51;;;;;;;;;;;;;;;18.92;54.24;100084.31;7389519;19;1722;-34
2024/01/15 08:09:22;;;;;;;;;;;;;;;18.53;54.93;100095.25;7390339;19;1582;-34
2024/01/15 08:11:50;;;;;;;;;;;;;;;18.21;55.76;100117.91;7389764;19;1475;-34
2024/01/15 08:14:19;;;;;;;;;;;;;;;17.98;56.24;100096.84;7389099;19;1496;-34
2024/01/15 08:16:47;;;;;;;;;;;;;;;17.93;56.43;100092.94;7388507;19;1408;-34
2024/01/15 08:19:15;;;;;;;;;;;;;;;18.48;55.30;100082.28;7388301;19;1873;-34
2024/01/15 08:21:44;;;;;;;;;;;;;;;18.91;54.30;100101.38;7390451;19;1432;-33
2024/01/15 08:24:12;;;;;;;;;;;;;;;18.67;54.79;100094.72;7389516;19;1448;-34
2024/01/15 08:26:43;;;;;;;;;;;;;;;18.35;55.14;100081.78;7386801;19;1483;-33
2024/01/15 08:29:11;;;;;;;;;;;;;;;18.41;54.96;100087.38;7390029;19;1393;-33
2024/01/15 08:31:40;;;;;;;;;;;;;;;18.94;54.01;100090.34;7391642;19;1447;-33
2024/01/15 08:34:08;;;;;;;;;;;;;;;19.16;53.55;100083.69;7390949;19;1186;-34
2024/01/15 08:36:36;;;;;;;;;;;;;;;18.87;54.10;100082.09;7386392;19;1506;-34
2024/01/15 08:39:05;;;;;;;;;;;;;;;18.53;54.78;100085.38;7373019;19;1908;-33
2024/01/15 08:41:34;;;;;;;;;;;;;;;18.43;55.14;100081.91;7389894;19;1666;-33
2024/01/15 08:44:05;;;;;;;;;;;;;;;18.92;54.26;100069.09;7390510;19;1053;-33
2024/01/15 08:46:33;;;;;;;;;;;;;;;19.34;53.19;100071.16;7389139;19;1803;-33
2024/01/15 08:49:03;;;;;;;;;;;;;;;19.22;53.39;100075.91;7388078;19;1342;-34
2024/01/15 08:51:31;;;;;;;;;;;;;;;18.82;54.19;100074.53;7390361;19;1312;-34
2024/01/15 08:53:59;;;;;;;;;;;;;;;18.43;55.23;100073.88;7387977;19;1214;-33
2024/01/15 08:56:28;;;;;;;;;;;;;;;18.71;54.65;100055.09;7389822;19;1113;-33
2024/01/15 08:58:53;;;;;;;;;;;;;;;19.07;53.86;100045.28;7387815;19;1872;-33
2024/01/15 09:01:25;;;;;;;;;;;;;;;19.40;52.96;100046.41;7388444;19;1487;-33
2024/01/15 09:03:53;;;;;;;;;;;;;;;19.52;52.69;100038.09;7389459;19;1675;-33
2024/01/15 09:06:22;;;;;;;;;;;;;;;19.51;52.58;100023.00;7389427;19;1571;-34
2024/01/15 09:08:50;;;;;;;;;;;;;;;19.50;52.59;100014.13;7387312;19;2298;-34
2024/01/15 09:11:18;;;;;;;;;;;;;;;19.47;52.55;100017.13;7388449;19;1579;-34
2024/01/15 09:13:47;;;;;;;;;;;;;;;19.42;52.70;100001.50;7388361;19;1443;-35
2024/01/15 09:16:15;;;;;;;;;;;;;;;19.45;52.70;99994.97;7388083;19;1123;-34
2024/01/15 09:18:46;;;;;;;;;;;;;;;19.48;52.79;99984.78;7388798;19;1857;-33
2024/01/15 09:21:15;;;;;;;;;;;;;;;19.54;52.50;99971.75;7385884;19;1277;-34
2024/01/15 09:23:43;;;;;;;;;;;;;;;19.50;52.53;99986.44;7388887;19;1741;-33
2024/01/15 09:26:11;;;;;;;;;;;;;;;19.57;52.45;99966.91;7389583;19;1209;-33
2024/01/15 09:28:40;;;;;;;;;;;;;;;19.66;52.39;99978.53;7390096;19;1059;-33
2024/01/15 09:31:08;;;;;;;;;;;;;;;19.61;52.37;99964.75;7388981;19;1914;-34
2024/01/15 09:33:36;;;;;;;;;;;;;;;19.57;52.49;99960.69;7388791;19;1838;-33
2024/01/15 09:36:08;;;;;;;;;;;;;;;19.57;52.54;99939.25;7389206;19;1316;-34
2024/01/15 09:38:36;;;;;;;;;;;;;;;19.53;52.48;99953.97;7377228;19;1845;-34
2024/01/15 09:41:05;;;;;;;;;;;;;;;19.61;52.25;99945.97;7388339;19;1701;-34
2024/01/15 09:43:34;;;;;;;;;;;;;;;19.62;52.27;99936.94;7386951;19;1240;-34
2024/01/15 09:46:02;;;;;;;;;;;;;;;19.65;52.43;99952.69;7389158;19;1770;-33
2024/01/15 09:48:33;;;;;;;;;;;;;;;19.61;52.31;99940.59;7386710;19;1554;-33
2024/01/15 09:51:04;;;;;;;;;;;;;;;19.60;52.23;99955.03;7386877;19;1449;-33
2024/01/15 09:53:36;;;;;;;;;;;;;;;19.61;52.32;99936.06;7387154;19;1396;-33
2024/01/15 09:56:04;;;;;;;;;;;;;;;19.57;52.56;99928.53;7386911;19;1658;-33
2024/01/15 09:58:33;;;;;;;;;;;;;;;19.55;52.49;99925.16;7387105;19;1837;-33
2024/01/15 10:01:02;;;;;;;;;;;;;;;19.62;52.31;99916.31;7387815;19;1464;-33
2024/01/15 10:03:31;;;;;;;;;;;;;;;19.56;52.40;99911.59;7387720;19;1277;-33
2024/01/15 10:06:02;;;;;;;;;;;;;;;19.58;52.33;99919.50;7392059;19;1408;-33
2024/01/15 10:08:30;;;;;;;;;;;;;;;19.54;52.46;99921.63;7392951;19;1201;-33
2024/01/15 10:11:01;;;;;;;;;;;;;;;19.66;52.07;99923.03;7394565;19;1403;-34
2024/01/15 10:13:30;;;;;;;;;;;;;;;19.66;52.21;99912.31;7393157;19;1233;-34
2024/01/15 10:15:59;;;;;;;;;;;;;;;19.68;52.11;99925.56;7393036;19;1917;-33
2024/01/15 10:18:27;;;;;;;;;;;;;;;19.69;52.18;99908.44;7393192;19;1862;-33
2024/01/15 10:20:57;;;;;;;;;;;;;;;19.59;52.37;99905.91;7392579;19;1519;-34
2024/01/15 10:23:26;;;;;;;;;;;;;;;19.33;53.76;99889.84;7389979;19;1453;-35
2024/01/15 10:25:54;;;;;;;;;;;;;;;18.87;54.61;99898.09;7393702;19;1556;-36
2024/01/15 10:28:25;;;;;;;;;;;;;;;18.58;55.31;99886.75;7391649;19;1240;-36
2024/01/15 10:30:54;;;;;;;;;;;;;;;18.42;55.79;99884.78;7393319;19;1543;-35
2024/01/15 10:33:25;;;;;;;;;;;;;;;18.32;56.23;99889.38;7393133;19;1957;-36
2024/01/15 10:35:55;;;;;;;;;;;;;;;18.25;56.37;99867.75;7393475;19;1479;-36
2024/01/15 10:38:25;;;;;;;;;;;;;;;18.20;56.75;99918.19;7392225;19;1842;-36
2024/01/15 10:40:53;;;;;;;;;;;;;;;18.68;55.48;99825.91;7379330;19;1118;-36
2024/01/15 10:43:25;;;;;;;;;;;;;;;18.95;54.84;99848.25;7393363;19;1557;-36
2024/01/15 10:45:54;;;;;;;;;;;;;;;18.71;55.03;99814.91;7389687;19;1741;-34
2024/01/15 10:48:22;;;;;;;;;;;;;;;18.50;55.66;99836.66;7389970;19;1139;-34
2024/01/15 10:50:51;;;;;;;;;;;;;;;18.29;56.01;99824.44;7393057;19;1105;-34
2024/01/15 10:53:20;;;;;;;;;;;;;;;18.17;56.26;99836.38;7392748;19;1475;-34
2024/01/15 10:55:50;;;;;;;;;;;;;;;18.22;55.90;99823.41;7392356;19;1563;-34
2024/01/15 10:58:19;;;;;;;;;;;;;;;17.94;55.12;99704.06;7390200;19;1845;-34
2024/01/15 11:00:51;;;;;;;;;;;;;;;19.01;54.57;99810.94;7390703;19;1852;-33
2024/01/15 11:03:21;;;;;;;;;;;;;;;18.77;55.12;99802.72;7393839;19;1488;-33
2024/01/15 11:05:50;;;;;;;;;;;;;;;18.43;56.06;99784.75;7392410;19;1281;-34
2024/01/15 11:08:19;;;;;;;;;;;;;;;18.34;56.06;99793.69;7390338;19;1471;-34
2024/01/15 11:10:49;;;;;;;;;;;;;;;18.24;56.25;99767.88;7391484;19;1593;-34
2024/01/15 11:13:18;;;;;;;;;;;;;;;18.27;56.58;99770.25;7393408;19;1773;-34
2024/01/15 11:16:05;;;;;;;;;;;;;;;18.63;55.86;99780.03;7391327;19;1816;-34
2024/01/15 11:18:34;;;;;;;;;;;;;;;18.88;55.49;99756.97;7389771;19;1861;-33
2024/01/15 11:21:17;;;;;;;;;;;;;;;18.63;55.82;99738.03;7389990;19;1514;-34
2024/01/15 11:23:46;;;;;;;;;;;;;;;18.36;56.69;99748.88;7392167;19;1399;-33
2024/01/15 11:26:29;;;;;;;;;;;;;;;18.24;57.07;99734.91;7389731;19;1500;-34
2024/01/15 11:28:58;;;;;;;;;;;;;;;18.13;57.46;99724.47;7392528;19;1471;-33
2024/01/15 11:31:32;;;;;;;;;;;;;;;18.47;56.43;99724.53;7391632;19;1521;-33
2024/01/15 11:34:00;;;;;;;;;;;;;;;18.95;55.47;99747.28;7390285;19;1495;-34
2024/01/15 11:36:46;;;;;;;;;;;;;;;18.89;55.87;99734.53;7380478;19;1678;-34
2024/01/15 11:39:32;;;;;;;;;;;;;;;18.54;56.45;99744.31;7369958;19;1841;-33
2024/01/15 11:42:01;;;;;;;;;;;;;;;18.29;57.54;99735.31;7386919;19;1369;-34
2024/01/15 11:44:30;;;;;;;;;;;;;;;18.08;57.73;99740.97;7387535;19;1508;-34
2024/01/15 11:47:02;;;;;;;;;;;;;;;18.00;57.96;99731.03;7388044;19;1490;-33
2024/01/15 11:49:39;;;;;;;;;;;;;;;18.21;57.52;99728.03;7389855;19;1389;-33
2024/01/15 11:52:07;;;;;;;;;;;;;;;18.60;56.62;99724.13;7388234;19;1496;-34
2024/01/15 11:54:38;;;;;;;;;;;;;;;18.46;56.85;99742.47;7387043;19;1699;-33
2024/01/15 11:57:12;;;;;;;;;;;;;;;18.24;57.52;99727.75;7388417;19;1562;-33
2024/01/15 11:59:40;;;;;;;;;;;;;;;18.08;57.71;99732.94;7385217;19;1860;-33
2024/01/15 12:02:13;;;;;;;;;;;;;;;18.01;57.88;99721.19;7388982;19;1574;-34
2024/01/15 12:04:42;;;;;;;;;;;;;;;18.04;57.84;99710.19;7389129;19;1809;-33
2024/01/15 12:07:10;;;;;;;;;;;;;;;18.55;56.96;99705.84;7385790;19;1515;-34
2024/01/15 12:09:44;;;;;;;;;;;;;;;18.71;56.21;99715.00;7387033;19;1856;-33
2024/01/15 12:12:16;;;;;;;;;;;;;;;18.36;57.02;99687.31;7389901;19;1586;-34
2024/01/15 12:14:44;;;;;;;;;;;;;;;18.14;57.67;99700.22;7386278;19;1753;-33
2024/01/15 12:17:15;;;;;;;;;;;;;;;18.03;58.06;99687.09;7386094;19;1313;-34
2024/01/15 12:19:43;;;;;;;;;;;;;;;17.98;58.03;99695.59;7388055;19;1868;-33
2024/01/15 12:22:12;;;;;;;;;;;;;;;18.30;57.29;99702.16;7387541;19;1703;-33
2024/01/15 12:24:40;;;;;;;;;;;;;;;18.65;56.55;99687.84;7386440;19;1246;-33
2024/01/15 12:27:09;;;;;;;;;;;;;;;18.66;56.31;99677.94;7386645;19;1662;-34
2024/01/15 12:29:38;;;;;;;;;;;;;;;18.32;57.23;99685.97;7387104;19;1574;-33
2024/01/15 12:32:08;;;;;;;;;;;;;;;18.07;57.74;99669.75;7388593;19;1584;-34
2024/01/15 12:34:40;;;;;;;;;;;;;;;17.86;58.02;99668.22;7380870;19;1556;-34
2024/01/15 12:37:10;;;;;;;;;;;;;;;17.98;57.94;99663.47;7387486;19;1744;-34
2024/01/15 12:39:39;;;;;;;;;;;;;;;18.40;57.05;99669.94;7374816;19;1846;-33
2024/01/15 12:42:08;;;;;;;;;;;;;;;18.76;56.43;99653.72;7388904;19;1627;-34
2024/01/15 12:44:37;;;;;;;;;;;;;;;18.43;56.70;99651.75;7383805;19;1631;-33
2024/01/15 12:47:06;;;;;;;;;;;;;;;18.03;57.86;99626.41;7382953;19;1485;-35
2024/01/15 12:49:34;;;;;;;;;;;;;;;17.84;57.86;99640.81;7385856;19;1399;-34
2024/01/15 12:52:06;;;;;;;;;;;;;;;17.81;58.08;99629.56;7388188;19;1491;-34
2024/01/15 12:54:34;;;;;;;;;;;;;;;18.24;57.22;99636.75;7389302;19;1472;-34
2024/01/15 12:57:03;;;;;;;;;;;;;;;18.49;56.69;99629.69;7389550;19;1474;-34
2024/01/15 12:59:31;;;;;;;;;;;;;;;18.44;56.82;99644.53;7389391;19;1852;-34